Time;durP1;ratioP1;P1;durP2;ratioP2;P2;SDS_P1;SDS_P2;PMS_P1;PMS_P2;Temp;Humidity;BMP_temperature;BMP_pressure;BME280_temperature;BME280_humidity;BME280_pressure;Samples;Min_cycle;Max_cycle;Signal;HPM_P1;HPM_P2
2023/07/26 06:26:48;;;;;;;5.32;1.27;;;;;;;15.30;77.00;101275.72;4960310;28;125254;-27
2023/07/26 06:29:14;;;;;;;1.92;1.10;;;;;;;15.35;77.27;101272.63;4953631;28;98861;-27
2023/07/26 06:31:39;;;;;;;2.33;1.33;;;;;;;15.39;76.97;101280.47;4954149;28;96588;-27
2023/07/26 06:34:04;;;;;;;2.17;1.17;;;;;;;15.40;76.19;101276.78;4954379;28;96633;-27
2023/07/26 06:36:30;;;;;;;3.90;1.50;;;;;;;15.54;76.77;101277.59;4953654;28;99722;-27
2023/07/26 06:38:55;;;;;;;4.07;1.40;;;;;;;15.79;75.98;101282.97;4953795;28;97790;-27
2023/07/26 06:41:20;;;;;;;1.75;1.10;;;;;;;16.02;75.50;101283.94;4953727;28;96670;-28
2023/07/26 06:43:46;;;;;;;4.00;1.50;;;;;;;16.23;74.86;101270.44;4954395;28;96810;-27
2023/07/26 06:46:11;;;;;;;4.10;1.65;;;;;;;16.53;73.81;101283.53;4953570;28;98984;-27
2023/07/26 06:48:37;;;;;;;1.42;0.98;;;;;;;16.75;72.59;101277.19;4953708;28;97755;-27
2023/07/26 06:51:04;;;;;;;3.28;1.30;;;;;;;16.96;72.41;101281.97;4953277;28;97533;-28
2023/07/26 06:53:29;;;;;;;1.27;0.98;;;;;;;17.15;71.41;101284.06;4953520;28;96766;-27
2023/07/26 06:55:58;;;;;;;5.25;1.23;;;;;;;17.34;70.48;101276.06;4953667;28;97878;-27
2023/07/26 06:58:23;;;;;;;2.28;1.35;;;;;;;17.51;70.10;101279.25;4953033;28;99734;-27
2023/07/26 07:00:49;;;;;;;1.83;1.00;;;;;;;17.63;69.54;101280.97;4953610;28;96552;-27
2023/07/26 07:03:14;;;;;;;2.50;1.15;;;;;;;17.72;69.21;101271.97;4953475;28;96851;-27
2023/07/26 07:05:40;;;;;;;2.95;1.15;;;;;;;17.88;68.86;101276.19;4953201;28;99612;-27
2023/07/26 07:08:05;;;;;;;1.27;1.00;;;;;;;18.02;68.45;101273.13;4953866;28;97270;-27
2023/07/26 07:10:30;;;;;;;3.17;1.45;;;;;;;18.24;68.17;101273.00;4953669;28;96604;-27
2023/07/26 07:12:56;;;;;;;4.25;1.25;;;;;;;18.42;67.22;101280.59;4953440;28;96977;-27
2023/07/26 07:15:21;;;;;;;1.80;0.95;;;;;;;18.56;66.90;101276.66;4952717;28;97760;-28
2023/07/26 07:17:47;;;;;;;2.75;1.13;;;;;;;18.74;66.43;101272.28;4953093;28;97750;-27
2023/07/26 07:20:12;;;;;;;2.30;1.02;;;;;;;18.67;66.01;101284.81;4953303;28;97903;-27
2023/07/26 07:22:37;;;;;;;3.10;1.15;;;;;;;18.71;66.12;101285.38;4953442;28;96786;-27
2023/07/26 07:25:03;;;;;;;2.65;1.35;;;;;;;18.74;66.23;101290.63;4953256;28;96979;-28
2023/07/26 07:27:29;;;;;;;4.18;1.27;;;;;;;18.54;65.82;101308.84;4967278;28;102189;-27
2023/07/26 07:29:54;;;;;;;2.75;1.05;;;;;;;18.31;66.68;101299.91;4972538;28;97377;-28
2023/07/26 07:32:20;;;;;;;3.50;1.20;;;;;;;18.41;66.89;101309.06;4971467;28;97044;-28
2023/07/26 07:34:45;;;;;;;2.75;1.20;;;;;;;18.63;65.85;101302.53;4972406;28;99257;-27
2023/07/26 07:37:11;;;;;;;2.50;1.15;;;;;;;18.70;65.64;101302.88;4972570;28;97937;-27
2023/07/26 07:39:36;;;;;;;2.75;1.40;;;;;;;18.61;65.37;101308.16;4972242;28;96624;-28
2023/07/26 07:42:02;;;;;;;3.80;1.38;;;;;;;18.78;65.18;101303.97;4972569;28;96759;-28
2023/07/26 07:44:28;;;;;;;2.80;1.00;;;;;;;18.75;63.31;101295.97;4972202;28;99907;-27
2023/07/26 07:46:53;;;;;;;2.78;1.20;;;;;;;18.62;64.82;101314.53;4983075;28;99245;-27
2023/07/26 07:49:19;;;;;;;2.08;1.20;;;;;;;18.37;65.30;101315.81;4992426;28;96601;-27
2023/07/26 07:51:45;;;;;;;2.95;1.38;;;;;;;18.20;65.16;101293.44;4991690;28;96853;-27
2023/07/26 07:54:11;;;;;;;3.60;1.58;;;;;;;18.63;64.29;101311.63;4991830;28;97754;-28
2023/07/26 07:56:36;;;;;;;3.88;1.40;;;;;;;19.01;63.96;101310.13;4992746;28;97255;-27
2023/07/26 07:59:01;;;;;;;3.10;1.20;;;;;;;19.36;62.70;101308.81;4992087;28;96681;-28
2023/07/26 08:01:27;;;;;;;2.83;1.27;;;;;;;19.26;63.10;101305.19;4991572;28;96933;-28
2023/07/26 08:03:52;;;;;;;2.83;1.20;;;;;;;18.94;62.94;101314.44;4991848;28;97151;-29
2023/07/26 08:06:17;;;;;;;3.70;1.23;;;;;;;18.60;62.74;101306.44;4990466;28;97202;-27
2023/07/26 08:08:43;;;;;;;3.90;1.60;;;;;;;18.38;61.74;101312.94;4991990;28;96668;-27
2023/07/26 08:11:08;;;;;;;5.57;1.92;;;;;;;18.38;62.70;101317.56;4990560;28;96799;-30
2023/07/26 08:13:34;;;;;;;2.35;1.20;;;;;;;18.70;63.15;101300.13;4991659;28;99359;-28
2023/07/26 08:15:59;;;;;;;2.42;1.10;;;;;;;19.12;61.42;101305.56;4991971;28;97275;-27
2023/07/26 08:18:25;;;;;;;1.73;1.10;;;;;;;19.39;61.42;101315.91;4992101;28;96538;-28
2023/07/26 08:20:50;;;;;;;3.00;1.40;;;;;;;19.25;60.59;101317.16;4992099;28;96818;-27
2023/07/26 08:23:16;;;;;;;2.53;1.15;;;;;;;19.02;61.40;101306.41;4991052;28;99631;-27
2023/07/26 08:25:41;;;;;;;2.42;1.20;;;;;;;19.00;60.75;101308.41;4988633;28;99495;-30
2023/07/26 08:28:07;;;;;;;5.82;1.40;;;;;;;19.13;60.12;101318.28;4987435;28;97960;-28
2023/07/26 08:30:32;;;;;;;2.40;1.13;;;;;;;19.38;59.32;101308.66;4989757;28;96779;-28
2023/07/26 08:32:57;;;;;;;2.63;1.23;;;;;;;19.54;58.98;101319.97;4989871;28;97991;-28
2023/07/26 08:35:23;;;;;;;4.68;1.20;;;;;;;19.69;59.32;101328.75;4989550;28;99254;-28
2023/07/26 08:37:49;;;;;;;2.15;1.17;;;;;;;19.89;58.33;101333.25;4988484;28;97021;-28
2023/07/26 08:40:15;;;;;;;1.70;1.05;;;;;;;20.10;57.65;101330.34;4991221;28;96905;-27
2023/07/26 08:42:41;;;;;;;1.88;0.98;;;;;;;20.42;57.41;101311.81;4991461;28;99378;-27
2023/07/26 08:45:08;;;;;;;2.13;1.10;;;;;;;20.26;58.15;101324.28;4991771;28;97878;-28
2023/07/26 08:47:35;;;;;;;4.20;1.70;;;;;;;20.00;56.88;101314.84;4990227;28;96828;-28
2023/07/26 08:50:02;;;;;;;2.20;1.25;;;;;;;20.36;57.24;101325.13;4990155;28;97503;-27
2023/07/26 08:52:28;;;;;;;2.67;1.30;;;;;;;20.69;56.48;101313.78;4989534;28;101138;-27
2023/07/26 08:54:55;;;;;;;2.58;1.13;;;;;;;20.78;56.72;101311.03;4989741;28;100868;-27
2023/07/26 08:57:23;;;;;;;2.58;1.40;;;;;;;20.70;55.95;101316.41;4990054;28;96740;-28
2023/07/26 08:59:49;;;;;;;3.55;1.20;;;;;;;20.42;56.45;101317.31;4989687;28;96844;-28
2023/07/26 09:02:16;;;;;;;1.73;0.98;;;;;;;20.49;56.80;101326.69;4991226;28;99070;-28
2023/07/26 09:04:41;;;;;;;2.67;1.23;;;;;;;20.69;56.95;101311.94;4993332;28;100860;-28
2023/07/26 09:07:07;;;;;;;3.05;1.23;;;;;;;21.03;55.39;101322.38;4994742;28;96733;-27
2023/07/26 09:09:34;;;;;;;2.10;1.05;;;;;;;21.29;53.60;101317.06;4994957;28;96854;-27
2023/07/26 09:12:00;;;;;;;2.58;1.27;;;;;;;21.43;54.47;101315.72;4993076;28;101317;-27
2023/07/26 09:14:27;;;;;;;2.97;1.15;;;;;;;21.62;52.19;101314.72;4994573;28;97472;-27
2023/07/26 09:17:00;;;;;;;3.40;1.35;;;;;;;21.88;52.86;101327.72;4992722;28;97211;-28
2023/07/26 09:19:35;;;;;;;2.08;1.10;;;;;;;22.00;52.39;101318.19;4994590;28;96623;-27
2023/07/26 09:22:03;;;;;;;2.78;0.90;;;;;;;22.11;51.17;101317.97;4992992;28;100643;-27
2023/07/26 09:24:41;;;;;;;2.35;1.08;;;;;;;22.21;51.33;101312.38;4992996;28;102352;-27
2023/07/26 09:27:09;;;;;;;2.83;1.05;;;;;;;22.43;51.33;101328.47;4994140;28;96822;-27
2023/07/26 09:29:36;;;;;;;3.88;1.40;;;;;;;22.47;50.12;101312.44;4993059;28;96811;-27
2023/07/26 09:32:02;;;;;;;2.13;1.23;;;;;;;22.08;51.33;101323.81;4992901;28;101226;-28
2023/07/26 09:34:29;;;;;;;1.60;1.00;;;;;;;21.61;52.31;101316.59;4993243;28;98900;-27
2023/07/26 09:36:56;;;;;;;2.92;1.38;;;;;;;21.43;52.50;101326.75;4992934;28;96585;-27
2023/07/26 09:39:24;;;;;;;2.53;1.35;;;;;;;21.75;51.80;101337.25;4992525;28;96734;-27
2023/07/26 09:41:50;;;;;;;6.50;1.00;;;;;;;22.05;51.15;101336.03;4992304;28;99178;-27
2023/07/26 09:44:21;;;;;;;6.45;1.20;;;;;;;21.87;51.16;101332.38;4992681;28;101250;-31
2023/07/26 09:46:50;;;;;;;3.90;1.23;;;;;;;22.10;50.30;101320.91;4994358;28;96700;-27
2023/07/26 09:49:19;;;;;;;2.90;1.13;;;;;;;22.12;49.03;101330.75;4992847;28;96933;-27
2023/07/26 09:51:45;;;;;;;4.15;1.13;;;;;;;21.68;51.83;101327.88;4992513;28;101261;-27
2023/07/26 09:54:12;;;;;;;2.83;1.10;;;;;;;21.25;51.57;101320.25;4993679;28;99746;-28
2023/07/26 09:56:40;;;;;;;3.50;1.17;;;;;;;20.87;52.66;101335.94;4994066;28;96475;-27
2023/07/26 09:59:11;;;;;;;3.58;1.55;;;;;;;20.67;53.16;101333.22;4992709;28;96855;-27
2023/07/26 10:01:43;;;;;;;2.03;0.93;;;;;;;21.20;52.18;101340.00;4994145;28;98568;-27
2023/07/26 10:04:15;;;;;;;4.78;1.48;;;;;;;21.64;50.20;101331.94;4993648;28;99009;-27
2023/07/26 10:06:42;;;;;;;2.03;0.90;;;;;;;21.91;49.72;101327.44;4992123;28;96512;-28
2023/07/26 10:09:13;;;;;;;2.35;1.10;;;;;;;22.22;49.90;101330.69;4992341;28;96981;-27
2023/07/26 10:11:41;;;;;;;2.13;1.20;;;;;;;22.60;50.54;101334.97;4993644;28;99465;-27
2023/07/26 10:14:09;;;;;;;3.38;1.30;;;;;;;22.93;49.18;101329.69;4992809;28;99742;-28
2023/07/26 10:16:36;;;;;;;3.45;1.17;;;;;;;22.97;48.72;101333.81;4992122;28;96686;-27
2023/07/26 10:19:03;;;;;;;2.83;1.45;;;;;;;22.77;47.85;101335.97;4991988;28;96850;-27
2023/07/26 10:21:29;;;;;;;4.32;1.15;;;;;;;22.97;48.67;101338.50;4992082;28;101415;-27
2023/07/26 10:23:57;;;;;;;3.42;1.48;;;;;;;23.14;47.87;101331.19;4993798;28;97308;-28
2023/07/26 10:26:23;;;;;;;2.53;1.38;;;;;;;23.23;48.09;101341.25;4991678;28;96740;-27
2023/07/26 10:28:48;;;;;;;2.55;1.10;;;;;;;23.36;47.87;101332.50;4992226;28;96891;-27
2023/07/26 10:31:14;;;;;;;3.58;1.20;;;;;;;23.60;47.41;101340.91;4992777;28;99319;-29
2023/07/26 10:33:44;;;;;;;3.85;1.20;;;;;;;23.63;46.27;101332.25;4993314;28;97768;-27
2023/07/26 10:36:10;;;;;;;2.33;1.15;;;;;;;23.74;46.41;101323.69;4993340;28;96591;-28
2023/07/26 10:38:48;;;;;;;1.98;1.20;;;;;;;23.32;47.02;101330.06;4992054;28;96839;-27
2023/07/26 10:41:24;;;;;;;3.10;1.75;;;;;;;23.32;46.37;101338.38;4993243;28;99527;-27
2023/07/26 10:43:59;;;;;;;3.00;1.20;;;;;;;23.41;47.59;101322.69;4993002;28;99340;-27
2023/07/26 10:46:25;;;;;;;2.45;1.20;;;;;;;23.71;47.26;101336.94;4992014;28;96583;-28
2023/07/26 10:48:52;;;;;;;3.53;1.00;;;;;;;23.80;46.08;101343.41;4993467;28;96845;-28
2023/07/26 10:51:34;;;;;;;1.80;1.08;;;;;;;23.91;45.95;101337.56;4991540;28;101013;-27
2023/07/26 10:54:00;;;;;;;1.65;0.85;;;;;;;23.96;44.96;101335.16;4991420;28;100975;-27
2023/07/26 10:56:33;;;;;;;4.18;1.45;;;;;;;24.10;45.01;101337.25;4990985;28;96801;-27
2023/07/26 10:59:04;;;;;;;2.90;1.23;;;;;;;24.11;44.81;101344.50;4991572;28;97094;-27
2023/07/26 11:01:40;;;;;;;1.67;0.88;;;;;;;23.58;45.87;101340.19;4993301;28;97553;-28
2023/07/26 11:04:20;;;;;;;2.85;1.10;;;;;;;23.51;46.54;101351.06;4993072;28;97832;-27
2023/07/26 11:06:49;;;;;;;3.38;1.20;;;;;;;23.56;46.94;101341.41;4992907;28;96577;-27
2023/07/26 11:09:25;;;;;;;3.63;1.30;;;;;;;23.38;46.58;101349.78;4978307;28;96940;-27
2023/07/26 11:11:59;;;;;;;2.10;0.93;;;;;;;23.26;44.89;101352.88;4971787;28;101081;-27
2023/07/26 11:14:27;;;;;;;2.50;1.10;;;;;;;23.37;47.04;101351.69;4973022;28;99293;-27
2023/07/26 11:16:54;;;;;;;1.73;1.13;;;;;;;23.02;47.52;101348.03;4972729;28;96490;-32
2023/07/26 11:19:19;;;;;;;1.95;1.00;;;;;;;22.97;47.33;101357.84;4992430;28;96821;-28
2023/07/26 11:21:45;;;;;;;2.58;1.13;;;;;;;22.73;49.05;101348.34;4979891;28;100743;-27
2023/07/26 11:24:10;;;;;;;3.35;1.45;;;;;;;22.35;48.27;101344.94;4986684;28;99307;-27
2023/07/26 11:26:46;;;;;;;2.33;1.00;;;;;;;22.07;48.91;101366.19;4979072;28;98386;-27
2023/07/26 11:29:12;;;;;;;2.90;1.27;;;;;;;21.87;50.03;101357.22;4988716;28;96697;-27
2023/07/26 11:31:38;;;;;;;1.73;0.98;;;;;;;21.69;50.10;101359.97;4977418;28;100945;-27
2023/07/26 11:34:14;;;;;;;3.40;1.20;;;;;;;21.62;49.56;101359.69;4983180;28;97778;-29
2023/07/26 11:36:40;;;;;;;1.85;1.05;;;;;;;21.59;49.69;101364.63;4978409;28;96795;-27
2023/07/26 11:39:06;;;;;;;2.90;1.25;;;;;;;21.66;49.88;101362.13;4969736;28;97166;-28
2023/07/26 11:41:31;;;;;;;2.97;0.90;;;;;;;21.89;50.26;101368.09;4971665;28;97725;-28
2023/07/26 11:43:58;;;;;;;3.03;1.17;;;;;;;21.68;49.74;101360.97;4972456;28;97928;-28
2023/07/26 11:46:28;;;;;;;4.35;1.27;;;;;;;21.62;49.84;101367.97;4970322;28;97662;-28
2023/07/26 11:48:53;;;;;;;1.98;1.05;;;;;;;21.46;50.27;101376.03;4972335;28;96887;-28
2023/07/26 11:51:20;;;;;;;2.30;1.15;;;;;;;21.60;49.58;101370.00;4971244;28;98386;-27
2023/07/26 11:53:46;;;;;;;2.95;1.15;;;;;;;21.80;49.55;101369.88;4970839;28;99415;-27
2023/07/26 11:56:12;;;;;;;2.75;1.15;;;;;;;22.16;48.41;101353.38;4972690;28;96752;-27
2023/07/26 11:58:38;;;;;;;2.55;1.15;;;;;;;22.33;48.37;101376.50;4972002;28;96917;-28
2023/07/26 12:01:04;;;;;;;2.75;1.10;;;;;;;22.58;47.17;101372.06;4971878;28;99368;-28
2023/07/26 12:03:30;;;;;;;1.63;0.88;;;;;;;22.92;46.78;101361.09;4971196;28;100641;-27
2023/07/26 12:05:56;;;;;;;4.63;1.35;;;;;;;23.30;46.89;101372.75;4972365;28;96733;-27
2023/07/26 12:08:22;;;;;;;3.10;1.10;;;;;;;23.49;45.80;101369.72;4970939;28;96870;-27
2023/07/26 12:10:47;;;;;;;2.35;0.80;;;;;;;23.72;45.43;101370.00;4971786;28;97885;-27
2023/07/26 12:13:23;;;;;;;2.50;1.10;;;;;;;23.85;45.74;101349.31;4972261;28;98370;-27
2023/07/26 12:15:58;;;;;;;3.63;1.48;;;;;;;24.10;44.85;101378.75;4972528;28;96630;-27
2023/07/26 12:18:25;;;;;;;1.63;1.05;;;;;;;24.26;44.30;101377.03;4970765;28;96875;-27
2023/07/26 12:21:03;;;;;;;3.30;1.02;;;;;;;24.24;44.11;101368.03;4970477;28;101459;-27
2023/07/26 12:23:48;;;;;;;1.63;0.90;;;;;;;24.20;45.00;101367.53;4970337;28;100943;-27
2023/07/26 12:26:14;;;;;;;2.50;1.02;;;;;;;24.42;44.48;101376.19;4971497;28;96613;-28
2023/07/26 12:28:40;;;;;;;2.50;1.02;;;;;;;24.47;44.23;101373.81;4990623;28;97024;-27
2023/07/26 12:31:05;;;;;;;5.20;1.42;;;;;;;24.54;44.56;101377.63;4991868;28;97941;-27
2023/07/26 12:33:30;;;;;;;1.63;1.00;;;;;;;24.48;45.50;101376.41;4972662;28;97234;-27
2023/07/26 12:35:56;;;;;;;2.20;1.13;;;;;;;24.53;44.98;101378.69;4971503;28;96525;-27
2023/07/26 12:38:23;;;;;;;2.80;1.10;;;;;;;24.52;44.82;101375.00;4974005;28;96846;-29
2023/07/26 12:40:51;;;;;;;1.55;0.80;;;;;;;24.55;45.19;101394.06;4993474;28;101209;-27
2023/07/26 12:43:23;;;;;;;1.45;0.93;;;;;;;24.50;45.60;101379.00;4993698;28;101043;-27
2023/07/26 12:45:49;;;;;;;2.10;1.13;;;;;;;24.34;45.55;101375.16;4993849;28;97126;-27
2023/07/26 12:48:14;;;;;;;2.22;1.10;;;;;;;24.49;45.27;101371.75;4995255;28;96772;-28
2023/07/26 12:50:41;;;;;;;6.35;1.60;;;;;;;24.59;44.72;101373.28;4994815;28;99433;-29
2023/07/26 12:53:06;;;;;;;2.63;1.15;;;;;;;24.68;45.50;101376.06;4995093;28;97355;-27
2023/07/26 12:55:34;;;;;;;2.17;1.42;;;;;;;24.73;44.59;101379.16;4995000;28;96616;-27
2023/07/26 12:57:59;;;;;;;2.00;0.82;;;;;;;24.55;44.46;101368.25;4994833;28;96981;-27
2023/07/26 13:00:25;;;;;;;2.72;1.20;;;;;;;24.61;44.23;101367.56;4990658;28;98055;-27
2023/07/26 13:02:51;;;;;;;2.42;1.20;;;;;;;24.69;44.89;101377.78;4994965;28;99664;-27
2023/07/26 13:05:18;;;;;;;3.80;1.30;;;;;;;24.71;42.65;101367.41;4996851;28;97868;-27
2023/07/26 13:07:48;;;;;;;1.17;0.70;;;;;;;24.58;42.52;101371.56;4994691;28;96804;-29
2023/07/26 13:10:13;;;;;;;1.42;0.88;;;;;;;24.30;44.25;101373.75;4983149;28;100902;-27
2023/07/26 13:12:38;;;;;;;2.72;1.48;;;;;;;24.23;43.34;101378.25;4976793;28;97348;-27
2023/07/26 13:15:04;;;;;;;1.98;1.10;;;;;;;24.23;44.24;101378.25;4995922;28;98520;-33
2023/07/26 13:17:30;;;;;;;2.03;1.15;;;;;;;24.21;44.03;101374.78;4976791;28;96993;-27
2023/07/26 13:19:55;;;;;;;2.40;1.10;;;;;;;24.34;44.39;101375.16;4972666;28;97412;-34
2023/07/26 13:22:20;;;;;;;4.25;1.00;;;;;;;24.26;44.59;101374.28;4974581;28;99283;-28
2023/07/26 13:24:46;;;;;;;2.33;1.15;;;;;;;23.99;43.69;101376.31;4973942;28;96654;-33
2023/07/26 13:27:11;;;;;;;2.75;1.23;;;;;;;23.96;44.25;101382.19;4974633;28;96886;-28
2023/07/26 13:29:37;;;;;;;3.38;1.20;;;;;;;23.82;45.30;101369.00;4973982;28;99563;-28
2023/07/26 13:32:02;;;;;;;2.30;1.08;;;;;;;23.68;44.58;101379.66;4974122;28;97827;-27
2023/07/26 13:34:27;;;;;;;3.10;1.17;;;;;;;23.57;45.20;101379.94;4974780;28;96541;-27
2023/07/26 13:36:59;;;;;;;3.45;1.02;;;;;;;23.56;45.48;101372.69;4974160;28;96853;-27
2023/07/26 13:39:25;;;;;;;3.20;1.00;;;;;;;23.75;45.61;101388.19;4973116;28;99345;-28
2023/07/26 13:41:51;;;;;;;2.88;1.13;;;;;;;23.81;44.13;101387.53;4970745;28;100996;-31
2023/07/26 13:44:16;;;;;;;2.92;1.25;;;;;;;23.86;44.46;101378.69;4971723;28;96709;-28
2023/07/26 13:46:41;;;;;;;2.20;1.00;;;;;;;23.93;45.01;101388.94;4972052;28;96760;-28
2023/07/26 13:49:07;;;;;;;1.25;0.85;;;;;;;23.98;44.33;101382.00;4983968;28;97336;-32
2023/07/26 13:51:32;;;;;;;1.98;0.90;;;;;;;24.00;44.14;101378.03;4980619;28;99138;-32
2023/07/26 13:53:59;;;;;;;2.03;1.10;;;;;;;23.98;42.52;101385.66;4971779;28;97180;-27
2023/07/26 13:56:24;;;;;;;1.65;0.82;;;;;;;23.95;43.02;101364.72;4972831;28;96876;-27
2023/07/26 13:58:50;;;;;;;1.67;0.93;;;;;;;23.89;44.46;101376.47;4973812;28;97991;-27
2023/07/26 14:01:17;;;;;;;2.35;0.85;;;;;;;23.87;43.62;101372.13;4974009;28;98311;-28
2023/07/26 14:03:42;;;;;;;1.33;0.77;;;;;;;23.83;43.96;101377.13;4972643;28;96956;-27
2023/07/26 14:06:08;;;;;;;2.25;0.93;;;;;;;23.84;43.59;101378.00;4974176;28;96834;-27
2023/07/26 14:08:33;;;;;;;2.83;1.20;;;;;;;23.77;44.18;101376.97;4974059;28;97515;-27
2023/07/26 14:10:59;;;;;;;2.15;0.88;;;;;;;23.73;43.60;101374.50;4973892;28;97283;-28
2023/07/26 14:13:24;;;;;;;1.25;0.73;;;;;;;23.72;43.88;101370.00;4972072;28;96923;-28
2023/07/26 14:15:50;;;;;;;1.75;0.80;;;;;;;23.70;43.44;101377.59;4973925;28;96808;-27
2023/07/26 14:18:15;;;;;;;2.65;1.00;;;;;;;23.55;43.40;101387.56;4973884;28;97869;-27
2023/07/26 14:20:40;;;;;;;1.70;0.85;;;;;;;23.50;43.99;101377.00;4973208;28;97755;-27
2023/07/26 14:23:06;;;;;;;3.67;1.02;;;;;;;23.42;44.01;101379.72;4973734;28;96586;-27
2023/07/26 14:25:33;;;;;;;1.95;0.98;;;;;;;23.45;43.58;101384.03;4972010;28;96861;-27
2023/07/26 14:27:59;;;;;;;4.53;1.60;;;;;;;23.42;43.53;101378.84;4971920;28;101248;-27
2023/07/26 14:30:24;;;;;;;1.67;0.80;;;;;;;23.44;44.37;101390.63;4972328;28;100846;-27
2023/07/26 14:32:49;;;;;;;3.28;0.80;;;;;;;23.42;43.89;101387.16;4973756;28;96527;-27
2023/07/26 14:35:15;;;;;;;1.85;1.15;;;;;;;23.42;44.10;101381.63;4973349;28;96890;-29
2023/07/26 14:37:40;;;;;;;3.42;0.80;;;;;;;23.34;44.33;101376.06;4972774;28;97464;-28
2023/07/26 14:40:06;;;;;;;1.17;0.80;;;;;;;23.35;44.62;101383.31;4972132;28;97309;-31
2023/07/26 14:42:31;;;;;;;1.33;0.68;;;;;;;23.25;43.74;101377.91;4969555;28;97668;-29
2023/07/26 14:44:57;;;;;;;2.03;0.88;;;;;;;23.22;44.48;101372.72;4970819;28;97098;-28
2023/07/26 14:47:22;;;;;;;1.52;0.82;;;;;;;23.22;43.38;101372.72;4970631;28;98542;-27
2023/07/26 14:49:48;;;;;;;1.90;0.93;;;;;;;23.09;43.64;101362.09;4970612;28;97752;-33
2023/07/26 14:52:13;;;;;;;1.42;0.93;;;;;;;23.07;44.14;101376.09;4970044;28;97129;-31
2023/07/26 14:54:40;;;;;;;2.03;1.13;;;;;;;23.12;44.21;101364.53;4970197;28;97155;-29
2023/07/26 14:57:05;;;;;;;2.38;1.08;;;;;;;23.06;44.71;101371.56;4967927;28;101193;-30
2023/07/26 14:59:31;;;;;;;4.32;1.20;;;;;;;23.04;44.85;101365.34;4968384;28;98959;-29
2023/07/26 15:01:56;;;;;;;2.03;0.75;;;;;;;23.09;44.64;101359.31;4968235;28;97114;-28
2023/07/26 15:04:21;;;;;;;1.95;1.05;;;;;;;23.08;44.03;101372.28;4969005;28;97244;-34
2023/07/26 15:06:47;;;;;;;1.98;0.75;;;;;;;22.96;43.89;101361.63;4970043;28;98185;-28
2023/07/26 15:09:12;;;;;;;1.52;0.85;;;;;;;22.93;43.11;101362.84;4970747;28;97219;-29
2023/07/26 15:11:37;;;;;;;1.23;0.75;;;;;;;22.94;44.23;101363.69;4973087;28;96625;-28
2023/07/26 15:14:03;;;;;;;4.68;0.80;;;;;;;22.92;43.76;101351.94;4973153;28;96839;-27
2023/07/26 15:16:28;;;;;;;2.15;1.00;;;;;;;22.93;44.33;101356.41;4972784;28;98902;-28
2023/07/26 15:18:53;;;;;;;3.03;0.90;;;;;;;22.89;42.90;101359.50;4973293;28;97392;-27
2023/07/26 15:21:19;;;;;;;1.38;0.90;;;;;;;22.89;43.79;101358.66;4972825;28;96545;-27
2023/07/26 15:23:47;;;;;;;1.45;0.77;;;;;;;22.88;43.04;101360.56;4973059;28;96790;-27
2023/07/26 15:26:12;;;;;;;2.38;0.90;;;;;;;22.84;43.95;101361.03;4970254;28;100764;-28
2023/07/26 15:28:37;;;;;;;1.77;0.85;;;;;;;22.78;43.63;101358.91;4972699;28;98774;-27
2023/07/26 15:31:03;;;;;;;1.67;0.70;;;;;;;22.79;44.20;101355.16;4972841;28;96523;-27
2023/07/26 15:33:28;;;;;;;2.30;0.82;;;;;;;22.62;43.72;101352.25;4972791;28;96830;-27
2023/07/26 15:35:53;;;;;;;2.60;1.10;;;;;;;22.53;42.20;101352.34;4972286;28;99531;-27
2023/07/26 15:38:19;;;;;;;1.00;0.68;;;;;;;22.52;43.52;101348.69;4972653;28;97833;-27
2023/07/26 15:40:44;;;;;;;3.53;0.75;;;;;;;22.54;43.86;101340.28;4972507;28;97254;-27
2023/07/26 15:43:10;;;;;;;2.25;1.17;;;;;;;22.51;42.99;101335.09;4973157;28;96965;-27
2023/07/26 15:45:35;;;;;;;2.53;1.23;;;;;;;22.41;43.61;101333.28;4972691;28;97897;-27
2023/07/26 15:48:00;;;;;;;3.28;1.15;;;;;;;22.42;43.51;101335.00;4972444;28;97749;-27
2023/07/26 15:50:26;;;;;;;2.25;1.10;;;;;;;22.44;43.62;101341.22;4972404;28;96482;-27
2023/07/26 15:52:51;;;;;;;1.40;0.85;;;;;;;22.41;43.72;101330.53;4972381;28;96930;-27
2023/07/26 15:55:16;;;;;;;2.13;0.82;;;;;;;22.38;42.22;101329.94;4972021;28;99322;-28
2023/07/26 15:57:42;;;;;;;2.17;1.05;;;;;;;22.31;43.64;101327.00;4971935;28;99616;-31
2023/07/26 16:00:08;;;;;;;3.03;0.98;;;;;;;22.24;43.58;101331.41;4972443;28;96666;-27
2023/07/26 16:02:34;;;;;;;1.80;0.77;;;;;;;22.24;43.74;101317.63;4971073;28;96844;-27
2023/07/26 16:04:59;;;;;;;2.33;0.90;;;;;;;22.21;42.96;101329.81;4972347;28;97586;-28
2023/07/26 16:07:24;;;;;;;2.08;0.80;;;;;;;22.19;42.77;101323.56;4972448;28;99419;-27
2023/07/26 16:09:50;;;;;;;1.23;0.70;;;;;;;22.12;42.81;101327.09;4972201;28;96638;-28
2023/07/26 16:12:15;;;;;;;1.27;0.82;;;;;;;22.11;43.69;101325.38;4971300;28;96875;-27
2023/07/26 16:14:40;;;;;;;4.00;0.90;;;;;;;22.09;42.73;101308.13;4971798;28;98368;-28
2023/07/26 16:17:06;;;;;;;1.70;0.77;;;;;;;22.18;42.96;101313.53;4972054;28;99306;-28
2023/07/26 16:19:31;;;;;;;1.90;0.77;;;;;;;22.20;43.59;101308.78;4972219;28;96544;-27
2023/07/26 16:21:57;;;;;;;1.45;0.75;;;;;;;22.14;42.25;101294.69;4972385;28;96807;-27
2023/07/26 16:24:24;;;;;;;2.65;0.90;;;;;;;22.08;42.42;101301.75;4972003;28;98050;-27
2023/07/26 16:26:50;;;;;;;1.20;0.80;;;;;;;22.09;43.08;101297.94;4971434;28;97903;-27
2023/07/26 16:29:16;;;;;;;2.42;0.77;;;;;;;22.11;43.21;101301.41;4970781;28;96624;-28
2023/07/26 16:31:41;;;;;;;2.78;0.95;;;;;;;22.06;42.71;101301.88;4972398;28;96876;-27
2023/07/26 16:34:07;;;;;;;2.83;0.90;;;;;;;22.02;43.50;101307.88;4972180;28;97552;-28
2023/07/26 16:36:32;;;;;;;3.08;1.00;;;;;;;22.02;43.34;101302.34;4971825;28;99278;-28
2023/07/26 16:38:58;;;;;;;4.78;0.82;;;;;;;22.05;42.28;101294.66;4971221;28;96739;-27
2023/07/26 16:41:23;;;;;;;1.63;0.75;;;;;;;21.97;43.37;101282.66;4978674;28;96848;-28
2023/07/26 16:43:49;;;;;;;4.03;1.13;;;;;;;21.99;42.11;101286.13;4990973;28;98384;-27
2023/07/26 16:46:14;;;;;;;1.98;1.00;;;;;;;21.89;43.56;101285.34;4991447;28;99564;-27
2023/07/26 16:48:39;;;;;;;1.67;0.98;;;;;;;21.93;42.86;101295.03;4991748;28;96607;-28
2023/07/26 16:51:05;;;;;;;2.25;1.20;;;;;;;21.87;43.36;101287.41;4991486;28;96869;-27
2023/07/26 16:53:30;;;;;;;2.10;0.73;;;;;;;21.75;41.13;101289.50;4991559;28;98089;-28
2023/07/26 16:55:56;;;;;;;2.17;1.10;;;;;;;21.78;42.44;101294.72;4988254;28;99286;-27
2023/07/26 16:58:22;;;;;;;1.65;0.90;;;;;;;21.78;43.35;101286.44;4980454;28;96758;-27
2023/07/26 17:00:47;;;;;;;2.80;1.00;;;;;;;21.80;42.88;101293.53;4981179;28;96838;-28
2023/07/26 17:03:13;;;;;;;3.08;0.90;;;;;;;21.75;43.31;101295.03;4980366;28;101329;-28
2023/07/26 17:05:39;;;;;;;1.58;0.77;;;;;;;21.74;42.90;101287.78;4973391;28;97757;-27
2023/07/26 17:08:04;;;;;;;2.75;1.02;;;;;;;21.67;42.27;101293.06;4991231;28;97351;-27
2023/07/26 17:10:30;;;;;;;1.70;0.70;;;;;;;21.59;43.26;101296.56;4977793;28;96835;-28
2023/07/26 17:12:56;;;;;;;1.98;1.00;;;;;;;21.55;42.80;101292.41;4971357;28;98689;-28
2023/07/26 17:15:21;;;;;;;1.40;0.75;;;;;;;21.48;43.17;101284.94;4985793;28;97096;-29
2023/07/26 17:17:47;;;;;;;3.05;0.82;;;;;;;21.47;42.35;101281.28;4990987;28;96654;-28
2023/07/26 17:20:12;;;;;;;2.15;1.30;;;;;;;21.51;43.02;101279.97;4983497;28;96824;-28
2023/07/26 17:22:38;;;;;;;1.75;0.80;;;;;;;21.44;43.06;101275.22;4982835;28;97459;-28
2023/07/26 17:25:08;;;;;;;2.28;0.82;;;;;;;21.37;43.84;101272.19;4972281;28;100941;-28
2023/07/26 17:27:33;;;;;;;1.50;0.80;;;;;;;21.31;43.59;101265.41;4972418;28;98305;-28
2023/07/26 17:29:58;;;;;;;1.38;0.70;;;;;;;21.32;43.42;101271.78;4991341;28;96881;-28
2023/07/26 17:32:24;;;;;;;2.00;1.02;;;;;;;21.30;43.99;101266.41;4994157;28;97324;-27
2023/07/26 17:34:52;;;;;;;3.05;1.08;;;;;;;21.30;43.09;101268.31;4978209;28;98401;-27
2023/07/26 17:37:18;;;;;;;1.40;0.77;;;;;;;21.30;43.84;101276.56;4983979;28;96861;-27
2023/07/26 17:39:43;;;;;;;1.15;0.63;;;;;;;21.34;43.99;101280.78;4981921;28;96808;-28
2023/07/26 17:42:09;;;;;;;1.30;0.40;;;;;;;21.30;44.17;101271.06;4984773;28;97645;-28
2023/07/26 17:44:35;;;;;;;1.83;0.82;;;;;;;21.32;44.07;101271.78;4989828;28;97800;-27
2023/07/26 17:47:00;;;;;;;2.42;1.00;;;;;;;21.28;44.28;101276.72;4985860;28;96585;-27